Time;durP1;ratioP1;P1;durP2;ratioP2;P2;SDS_P1;SDS_P2;PMS_P1;PMS_P2;Temp;Humidity;BMP_temperature;BMP_pressure;BME280_temperature;BME280_humidity;BME280_pressure;Samples;Min_cycle;Max_cycle;Signal;HPM_P1;HPM_P2
2022/12/08 00:00:06;;;;;;;4.67;4.07;;;;;;;;;;5015138;28;20186;-73
2022/12/08 00:02:31;;;;;;;4.70;4.30;;;;;;;;;;5029946;28;20691;-73
2022/12/08 00:10:24;;;;;;;4.20;3.80;;;;;;;;;;5027630;28;20445;-73
2022/12/08 00:12:49;;;;;;;4.73;3.50;;;;;;;;;;5031812;28;20198;-73
2022/12/08 00:15:15;;;;;;;5.17;3.97;;;;;;;;;;5031963;28;20174;-73
2022/12/08 00:17:40;;;;;;;5.27;4.23;;;;;;;;;;5013139;28;20186;-73
2022/12/08 00:20:05;;;;;;;6.93;4.87;;;;;;;;;;5027391;28;20173;-73
2022/12/08 00:22:31;;;;;;;5.93;4.87;;;;;;;;;;5029211;28;20215;-73
2022/12/08 00:24:57;;;;;;;7.70;5.37;;;;;;;;;;5015249;28;20182;-73
2022/12/08 00:27:22;;;;;;;13.23;5.53;;;;;;;;;;5030376;28;20213;-73
2022/12/08 00:29:47;;;;;;;6.27;5.13;;;;;;;;;;5033063;28;20617;-73
2022/12/08 00:32:12;;;;;;;5.23;4.17;;;;;;;;;;5030869;28;20651;-73
2022/12/08 00:34:37;;;;;;;3.33;3.03;;;;;;;;;;5031626;28;20175;-73
2022/12/08 00:37:03;;;;;;;3.47;2.50;;;;;;;;;;5032255;28;20201;-73
2022/12/08 00:39:28;;;;;;;1.60;1.50;;;;;;;;;;5014238;28;20542;-73
2022/12/08 00:42:11;;;;;;;1.83;1.47;;;;;;;;;;5030782;28;20678;-73
2022/12/08 00:44:36;;;;;;;1.60;1.20;;;;;;;;;;5031912;28;20178;-72
2022/12/08 00:47:01;;;;;;;1.27;1.00;;;;;;;;;;5014653;28;20274;-72
2022/12/08 00:49:27;;;;;;;2.00;1.33;;;;;;;;;;5032431;28;20182;-73
2022/12/08 00:51:52;;;;;;;1.83;1.53;;;;;;;;;;5029620;28;20682;-73
2022/12/08 00:54:18;;;;;;;1.70;1.40;;;;;;;;;;5030694;28;20633;-73
2022/12/08 00:56:43;;;;;;;1.27;1.17;;;;;;;;;;5014011;28;20197;-73
2022/12/08 00:59:08;;;;;;;1.60;1.50;;;;;;;;;;5031827;28;20198;-72
2022/12/08 01:01:34;;;;;;;2.50;1.87;;;;;;;;;;5030474;28;20193;-73
2022/12/08 01:04:03;;;;;;;2.57;2.00;;;;;;;;;;5013728;28;20197;-73
2022/12/08 01:06:28;;;;;;;2.00;1.87;;;;;;;;;;5003399;28;20746;-73
2022/12/08 01:08:53;;;;;;;2.30;2.10;;;;;;;;;;5030954;28;20187;-73
2022/12/08 01:11:19;;;;;;;3.13;2.87;;;;;;;;;;5008406;28;20190;-72
2022/12/08 01:13:44;;;;;;;4.17;2.40;;;;;;;;;;5032210;28;20229;-73
2022/12/08 01:16:17;;;;;;;3.30;3.00;;;;;;;;;;5028353;28;20194;-73
2022/12/08 01:18:42;;;;;;;3.00;2.80;;;;;;;;;;5026853;28;20261;-73
2022/12/08 01:21:07;;;;;;;3.77;3.37;;;;;;;;;;5023155;28;20642;-73
2022/12/08 01:23:33;;;;;;;4.50;3.87;;;;;;;;;;5026361;28;20619;-73
2022/12/08 01:26:05;;;;;;;4.63;3.83;;;;;;;;;;5028457;28;20232;-72
2022/12/08 01:28:31;;;;;;;8.90;4.57;;;;;;;;;;5018599;28;20193;-73
2022/12/08 01:30:56;;;;;;;6.13;4.47;;;;;;;;;;5031006;28;20186;-73
2022/12/08 01:33:22;;;;;;;5.50;4.70;;;;;;;;;;5030229;28;20213;-73
2022/12/08 01:35:47;;;;;;;6.67;4.37;;;;;;;;;;5016682;28;20666;-73
2022/12/08 01:38:12;;;;;;;4.87;4.17;;;;;;;;;;5029909;28;20183;-73
2022/12/08 01:40:37;;;;;;;4.37;3.83;;;;;;;;;;5026586;28;20253;-73
2022/12/08 01:43:03;;;;;;;6.87;4.30;;;;;;;;;;5029211;28;20256;-72
2022/12/08 01:45:30;;;;;;;6.20;4.23;;;;;;;;;;5034969;28;20182;-73
2022/12/08 01:47:57;;;;;;;6.53;4.30;;;;;;;;;;5029382;28;20664;-72
2022/12/08 01:50:23;;;;;;;5.60;3.97;;;;;;;;;;5033157;28;20217;-73
2022/12/08 01:52:53;;;;;;;7.33;3.80;;;;;;;;;;5028218;28;20303;-73
2022/12/08 01:55:27;;;;;;;5.00;3.60;;;;;;;;;;5030520;28;20241;-72
2022/12/08 01:57:55;;;;;;;5.40;3.10;;;;;;;;;;5030154;28;20201;-73
2022/12/08 02:00:21;;;;;;;5.83;3.27;;;;;;;;;;5026522;28;20185;-73
2022/12/08 02:02:49;;;;;;;6.40;2.67;;;;;;;;;;5030784;28;20196;-73
2022/12/08 02:05:15;;;;;;;5.67;2.80;;;;;;;;;;5010368;28;20185;-73
2022/12/08 02:07:40;;;;;;;6.27;2.80;;;;;;;;;;5034010;28;20206;-73
2022/12/08 02:10:05;;;;;;;4.00;2.30;;;;;;;;;;5035534;28;20181;-73
2022/12/08 02:12:31;;;;;;;3.73;1.90;;;;;;;;;;5034394;28;20202;-73
2022/12/08 02:14:56;;;;;;;3.87;2.10;;;;;;;;;;5034557;28;20564;-73
2022/12/08 02:17:36;;;;;;;1.73;1.30;;;;;;;;;;5016457;28;20289;-73
2022/12/08 02:20:22;;;;;;;3.30;1.07;;;;;;;;;;5029997;28;20171;-73
2022/12/08 02:23:00;;;;;;;5.97;1.30;;;;;;;;;;5030695;28;20212;-73
2022/12/08 02:25:34;;;;;;;2.93;1.07;;;;;;;;;;5035349;28;20678;-73
2022/12/08 02:28:31;;;;;;;6.33;1.10;;;;;;;;;;5033001;28;20248;-73
2022/12/08 02:31:06;;;;;;;2.63;0.80;;;;;;;;;;5027725;28;20174;-72
2022/12/08 02:33:41;;;;;;;7.23;2.00;;;;;;;;;;5039823;28;20297;-72
2022/12/08 02:36:13;;;;;;;1.03;0.60;;;;;;;;;;5043758;28;20217;-72
2022/12/08 02:38:45;;;;;;;1.57;0.70;;;;;;;;;;5037573;28;20236;-73
2022/12/08 02:41:17;;;;;;;1.30;0.60;;;;;;;;;;5029040;28;20258;-73
2022/12/08 02:43:53;;;;;;;0.60;0.47;;;;;;;;;;5034948;28;20232;-73
2022/12/08 02:46:31;;;;;;;0.93;0.60;;;;;;;;;;5034565;28;20280;-73
2022/12/08 02:48:56;;;;;;;3.00;0.77;;;;;;;;;;5033904;28;20178;-73
2022/12/08 02:51:22;;;;;;;2.83;0.90;;;;;;;;;;5034021;28;20189;-74
2022/12/08 02:53:47;;;;;;;0.73;0.70;;;;;;;;;;5034393;28;20213;-73
2022/12/08 02:56:18;;;;;;;1.00;0.47;;;;;;;;;;5034447;28;20195;-74
2022/12/08 02:58:57;;;;;;;1.30;0.80;;;;;;;;;;5029400;28;20167;-73
2022/12/08 03:01:31;;;;;;;5.47;0.90;;;;;;;;;;5032565;28;20518;-74
2022/12/08 03:03:56;;;;;;;1.73;0.77;;;;;;;;;;5013837;28;20183;-74
2022/12/08 03:06:48;;;;;;;3.93;1.00;;;;;;;;;;5016245;28;20210;-74
2022/12/08 03:09:18;;;;;;;1.33;1.20;;;;;;;;;;4995358;28;20205;-75
2022/12/08 03:11:43;;;;;;;2.67;1.70;;;;;;;;;;5025187;28;20548;-73
2022/12/08 03:14:10;;;;;;;2.50;1.57;;;;;;;;;;5015815;28;20183;-74
2022/12/08 03:16:38;;;;;;;4.50;1.73;;;;;;;;;;5033205;28;20205;-74
2022/12/08 03:19:18;;;;;;;3.90;2.10;;;;;;;;;;5032801;28;20223;-74
2022/12/08 03:21:45;;;;;;;3.00;2.07;;;;;;;;;;5025857;28;20170;-74
2022/12/08 03:24:11;;;;;;;4.60;2.00;;;;;;;;;;5033189;28;20667;-73
2022/12/08 03:26:45;;;;;;;2.90;2.20;;;;;;;;;;5030666;28;20198;-74
2022/12/08 03:29:10;;;;;;;3.40;2.17;;;;;;;;;;5016001;28;20179;-74
2022/12/08 03:31:38;;;;;;;2.53;2.10;;;;;;;;;;5032561;28;20186;-74
2022/12/08 03:34:04;;;;;;;4.63;1.80;;;;;;;;;;5015684;28;20170;-73
2022/12/08 03:36:29;;;;;;;4.27;1.70;;;;;;;;;;5026262;28;20209;-73
2022/12/08 03:38:54;;;;;;;4.70;1.90;;;;;;;;;;5033677;28;20185;-73
2022/12/08 03:41:23;;;;;;;3.13;2.20;;;;;;;;;;5032293;28;20171;-73
2022/12/08 03:43:51;;;;;;;4.67;2.10;;;;;;;;;;5033180;28;20171;-73
2022/12/08 03:46:16;;;;;;;4.13;2.30;;;;;;;;;;5014879;28;20203;-73
2022/12/08 03:48:42;;;;;;;3.10;1.93;;;;;;;;;;5031725;28;20190;-73
2022/12/08 03:51:07;;;;;;;4.10;1.83;;;;;;;;;;5032164;28;20720;-73
2022/12/08 03:53:33;;;;;;;1.70;1.50;;;;;;;;;;5016273;28;20267;-73
2022/12/08 03:55:58;;;;;;;2.50;1.60;;;;;;;;;;5032746;28;20221;-73
2022/12/08 03:58:23;;;;;;;1.20;1.00;;;;;;;;;;5012249;28;20236;-73
2022/12/08 04:00:48;;;;;;;4.67;1.27;;;;;;;;;;5014681;28;20321;-73
2022/12/08 04:03:13;;;;;;;2.20;1.67;;;;;;;;;;5032187;28;20656;-73
2022/12/08 04:05:39;;;;;;;3.63;1.87;;;;;;;;;;5026852;28;20201;-73
2022/12/08 04:08:04;;;;;;;3.37;1.40;;;;;;;;;;5060424;22;20234;-81
2022/12/08 04:10:29;;;;;;;1.80;1.03;;;;;;;;;;5053665;28;20221;-82
2022/12/08 04:12:55;;;;;;;5.17;1.00;;;;;;;;;;5050841;28;20201;-84
2022/12/08 04:15:20;;;;;;;2.70;0.80;;;;;;;;;;5053753;28;20185;-81
2022/12/08 04:17:45;;;;;;;4.50;0.93;;;;;;;;;;5051970;28;20267;-81
2022/12/08 04:20:11;;;;;;;1.13;0.70;;;;;;;;;;5055765;28;20257;-81
2022/12/08 04:22:36;;;;;;;2.20;0.90;;;;;;;;;;5058162;28;20177;-79
2022/12/08 04:25:01;;;;;;;2.00;0.80;;;;;;;;;;5061636;28;20178;-81
2022/12/08 04:27:26;;;;;;;0.80;0.50;;;;;;;;;;5036748;28;20205;-81
2022/12/08 04:29:51;;;;;;;1.03;0.40;;;;;;;;;;5053254;28;20190;-81
2022/12/08 04:32:17;;;;;;;0.33;0.33;;;;;;;;;;5035698;28;20709;-81
2022/12/08 04:34:42;;;;;;;2.40;0.40;;;;;;;;;;5038294;28;20178;-81
2022/12/08 04:37:07;;;;;;;1.60;0.80;;;;;;;;;;5054084;28;20251;-81
2022/12/08 04:39:32;;;;;;;1.03;0.57;;;;;;;;;;5053879;28;20174;-81
2022/12/08 04:41:57;;;;;;;3.30;0.57;;;;;;;;;;5053004;28;20174;-81
2022/12/08 04:44:23;;;;;;;1.17;0.40;;;;;;;;;;5053694;28;20199;-81
2022/12/08 04:46:48;;;;;;;1.70;0.33;;;;;;;;;;5053327;28;20197;-81
2022/12/08 04:49:13;;;;;;;1.10;0.20;;;;;;;;;;5055560;28;20177;-80
2022/12/08 04:51:38;;;;;;;2.67;0.40;;;;;;;;;;5061722;28;20200;-80
2022/12/08 04:54:03;;;;;;;0.87;0.73;;;;;;;;;;5047193;28;20173;-80
2022/12/08 04:56:29;;;;;;;0.53;0.30;;;;;;;;;;5053914;28;20559;-82
2022/12/08 04:58:54;;;;;;;1.07;0.40;;;;;;;;;;5062746;28;20196;-80
2022/12/08 05:01:19;;;;;;;3.43;0.53;;;;;;;;;;5035021;28;20177;-80
2022/12/08 05:03:44;;;;;;;2.30;0.40;;;;;;;;;;5052919;28;20199;-81
2022/12/08 05:06:11;;;;;;;1.07;0.40;;;;;;;;;;5051736;28;20188;-80
2022/12/08 05:08:37;;;;;;;2.13;0.40;;;;;;;;;;5035627;28;20197;-80
2022/12/08 05:11:02;;;;;;;0.30;0.20;;;;;;;;;;5029737;28;20192;-80
2022/12/08 05:13:28;;;;;;;0.60;0.20;;;;;;;;;;5053481;28;20552;-80
2022/12/08 05:15:53;;;;;;;0.60;0.30;;;;;;;;;;5037772;28;20588;-80
2022/12/08 05:18:18;;;;;;;0.30;0.17;;;;;;;;;;5047539;28;20252;-80
2022/12/08 05:20:43;;;;;;;0.80;0.30;;;;;;;;;;5051634;28;20182;-80
2022/12/08 05:23:09;;;;;;;2.93;0.20;;;;;;;;;;5035248;28;20499;-80
2022/12/08 05:25:34;;;;;;;0.60;0.30;;;;;;;;;;5055101;28;20169;-81
2022/12/08 05:27:59;;;;;;;0.40;0.30;;;;;;;;;;5076844;28;20193;-80
2022/12/08 05:30:24;;;;;;;0.93;0.43;;;;;;;;;;5075853;28;20170;-80
2022/12/08 05:32:49;;;;;;;2.20;0.33;;;;;;;;;;5075539;28;20253;-80
2022/12/08 05:35:15;;;;;;;0.70;0.30;;;;;;;;;;5059726;28;20189;-81
2022/12/08 05:37:40;;;;;;;0.77;0.33;;;;;;;;;;5059458;28;20177;-81
2022/12/08 05:40:05;;;;;;;1.70;0.60;;;;;;;;;;5058518;28;20201;-81
2022/12/08 05:42:31;;;;;;;1.07;0.53;;;;;;;;;;5064605;28;20188;-80
2022/12/08 05:44:56;;;;;;;2.63;0.53;;;;;;;;;;5083547;28;20175;-81
2022/12/08 05:47:21;;;;;;;1.80;0.40;;;;;;;;;;5066238;28;20181;-81
2022/12/08 05:49:47;;;;;;;1.93;0.50;;;;;;;;;;5065414;28;20257;-81
2022/12/08 05:52:12;;;;;;;1.27;0.50;;;;;;;;;;5081880;28;20269;-82
2022/12/08 05:54:38;;;;;;;2.30;0.77;;;;;;;;;;5083130;28;20249;-82
2022/12/08 05:57:03;;;;;;;2.23;0.30;;;;;;;;;;5082453;28;20208;-82
2022/12/08 05:59:28;;;;;;;1.53;0.30;;;;;;;;;;5049666;28;20188;-82
2022/12/08 06:01:53;;;;;;;1.67;0.30;;;;;;;;;;5040829;28;20177;-80
2022/12/08 06:04:19;;;;;;;1.23;0.30;;;;;;;;;;5041716;28;20559;-83
2022/12/08 06:06:44;;;;;;;1.70;0.30;;;;;;;;;;5059168;28;20205;-82
2022/12/08 06:09:09;;;;;;;1.70;0.57;;;;;;;;;;5059848;28;20181;-83
2022/12/08 06:11:34;;;;;;;0.87;0.40;;;;;;;;;;5040470;28;20200;-83
2022/12/08 06:14:00;;;;;;;1.63;0.50;;;;;;;;;;5040714;28;20260;-83
2022/12/08 06:16:26;;;;;;;0.37;0.20;;;;;;;;;;5039556;28;20252;-83
2022/12/08 06:18:51;;;;;;;0.60;0.20;;;;;;;;;;5060051;28;20175;-83
2022/12/08 06:21:17;;;;;;;0.30;0.23;;;;;;;;;;5040628;28;20265;-83
2022/12/08 06:23:42;;;;;;;0.80;0.20;;;;;;;;;;5051401;28;20177;-84
2022/12/08 06:26:12;;;;;;;0.80;0.33;;;;;;;;;;5044954;28;20196;-84
2022/12/08 06:28:37;;;;;;;0.30;0.20;;;;;;;;;;5061954;28;20178;-84
2022/12/08 06:31:16;;;;;;;0.10;0.10;;;;;;;;;;5043181;28;20188;-84
2022/12/08 06:33:42;;;;;;;1.30;0.20;;;;;;;;;;5061832;28;20197;-84
2022/12/08 06:36:07;;;;;;;0.50;0.30;;;;;;;;;;5044442;28;20173;-84
2022/12/08 06:38:33;;;;;;;1.27;0.50;;;;;;;;;;5045029;28;20177;-84
2022/12/08 06:40:58;;;;;;;0.20;0.10;;;;;;;;;;5043097;28;20201;-84
2022/12/08 06:43:24;;;;;;;0.43;0.20;;;;;;;;;;5044337;28;20181;-84
2022/12/08 06:45:49;;;;;;;0.83;0.30;;;;;;;;;;5060239;28;20176;-84
2022/12/08 06:48:15;;;;;;;0.20;0.20;;;;;;;;;;5042555;28;20243;-84
2022/12/08 06:50:40;;;;;;;0.20;0.10;;;;;;;;;;5042321;28;20549;-84
2022/12/08 06:53:06;;;;;;;0.77;0.27;;;;;;;;;;5055595;28;20525;-84
2022/12/08 06:55:31;;;;;;;0.30;0.17;;;;;;;;;;5041422;28;20177;-84
2022/12/08 06:57:56;;;;;;;0.10;0.10;;;;;;;;;;5040938;28;20197;-84
2022/12/08 07:00:21;;;;;;;0.53;0.20;;;;;;;;;;5037091;28;20190;-84
2022/12/08 07:02:47;;;;;;;0.50;0.10;;;;;;;;;;5040763;28;20220;-84
2022/12/08 07:05:12;;;;;;;0.30;0.17;;;;;;;;;;5059974;28;20255;-84
2022/12/08 07:07:37;;;;;;;0.83;0.20;;;;;;;;;;5060419;28;20205;-84
2022/12/08 07:10:03;;;;;;;0.67;0.20;;;;;;;;;;5044115;28;20178;-84
2022/12/08 07:12:28;;;;;;;1.03;0.50;;;;;;;;;;5043468;28;20198;-84
2022/12/08 07:14:53;;;;;;;0.40;0.20;;;;;;;;;;5049733;28;20675;-84
2022/12/08 07:17:18;;;;;;;0.30;0.30;;;;;;;;;;5048949;28;20228;-84
2022/12/08 07:19:43;;;;;;;0.27;0.20;;;;;;;;;;5047268;28;20196;-84
2022/12/08 07:22:09;;;;;;;1.80;0.20;;;;;;;;;;5045640;28;20174;-84
2022/12/08 07:24:34;;;;;;;0.20;0.13;;;;;;;;;;5046560;28;20192;-84
2022/12/08 07:26:59;;;;;;;0.10;0.10;;;;;;;;;;5047716;28;20220;-84
2022/12/08 07:29:24;;;;;;;0.47;0.30;;;;;;;;;;5063889;28;20182;-84
2022/12/08 07:31:49;;;;;;;0.53;0.23;;;;;;;;;;5062677;28;20169;-82
2022/12/08 07:34:15;;;;;;;0.50;0.27;;;;;;;;;;5066194;28;20184;-83
2022/12/08 07:36:40;;;;;;;0.43;0.40;;;;;;;;;;5064275;28;20225;-83
2022/12/08 07:39:05;;;;;;;0.60;0.30;;;;;;;;;;5065173;28;20217;-83
2022/12/08 07:41:30;;;;;;;0.97;0.30;;;;;;;;;;5062784;28;20174;-83
2022/12/08 07:43:56;;;;;;;0.40;0.23;;;;;;;;;;5048686;28;20181;-83
2022/12/08 07:46:22;;;;;;;1.13;0.40;;;;;;;;;;5047448;28;20230;-83
2022/12/08 07:48:47;;;;;;;0.80;0.53;;;;;;;;;;5049085;28;20192;-83
2022/12/08 07:51:13;;;;;;;3.07;0.70;;;;;;;;;;5047283;28;20181;-83
2022/12/08 07:53:43;;;;;;;1.90;0.43;;;;;;;;;;5055336;28;20194;-82
2022/12/08 07:56:10;;;;;;;0.70;0.40;;;;;;;;;;5037938;28;20185;-83
2022/12/08 07:58:35;;;;;;;0.60;0.33;;;;;;;;;;5039332;28;20263;-83
2022/12/08 08:01:01;;;;;;;1.03;0.63;;;;;;;;;;5059483;28;20174;-82
2022/12/08 08:03:26;;;;;;;3.70;0.50;;;;;;;;;;5058880;28;20425;-83
2022/12/08 08:05:51;;;;;;;0.43;0.30;;;;;;;;;;5060119;28;20178;-82
2022/12/08 08:08:17;;;;;;;3.50;0.63;;;;;;;;;;5038115;28;20224;-82
2022/12/08 08:10:42;;;;;;;3.10;0.40;;;;;;;;;;5054441;28;20198;-82
2022/12/08 08:13:08;;;;;;;1.10;0.40;;;;;;;;;;5037888;28;20217;-84
2022/12/08 08:15:33;;;;;;;1.07;0.50;;;;;;;;;;5040921;28;20173;-82
2022/12/08 08:17:59;;;;;;;0.60;0.60;;;;;;;;;;5038175;28;20196;-81
2022/12/08 08:20:24;;;;;;;1.43;0.60;;;;;;;;;;5057269;28;20180;-82
2022/12/08 08:22:50;;;;;;;0.67;0.60;;;;;;;;;;5049602;28;20177;-82
2022/12/08 08:25:15;;;;;;;1.20;0.73;;;;;;;;;;5039688;28;20288;-81
2022/12/08 08:27:41;;;;;;;0.87;0.53;;;;;;;;;;5051321;28;20193;-81
2022/12/08 08:30:08;;;;;;;1.23;0.70;;;;;;;;;;5049035;28;20217;-81
2022/12/08 08:32:34;;;;;;;0.73;0.67;;;;;;;;;;5033582;28;20209;-81
2022/12/08 08:34:59;;;;;;;0.73;0.60;;;;;;;;;;5056011;28;20583;-83
2022/12/08 08:37:24;;;;;;;1.07;0.50;;;;;;;;;;5064035;28;20194;-83
2022/12/08 08:39:50;;;;;;;0.83;0.63;;;;;;;;;;5051323;28;20260;-82
2022/12/08 08:42:15;;;;;;;1.13;0.50;;;;;;;;;;5061197;28;20174;-82
2022/12/08 08:44:40;;;;;;;1.77;0.90;;;;;;;;;;5060097;28;20549;-82
2022/12/08 08:47:05;;;;;;;1.53;0.83;;;;;;;;;;5037282;28;20705;-82
2022/12/08 08:49:30;;;;;;;3.13;0.73;;;;;;;;;;5038366;28;20179;-82
2022/12/08 08:51:55;;;;;;;1.33;0.80;;;;;;;;;;5048145;28;20182;-81
2022/12/08 08:54:21;;;;;;;1.13;0.63;;;;;;;;;;5059640;28;20185;-81
2022/12/08 08:56:47;;;;;;;0.90;0.80;;;;;;;;;;5037567;28;20508;-82
2022/12/08 08:59:12;;;;;;;1.43;0.77;;;;;;;;;;5055220;28;20179;-82
2022/12/08 09:01:37;;;;;;;1.87;0.53;;;;;;;;;;5052820;28;20174;-82
2022/12/08 09:04:02;;;;;;;3.03;0.80;;;;;;;;;;5041307;28;20269;-82
2022/12/08 09:06:28;;;;;;;1.23;0.70;;;;;;;;;;5055320;28;20774;-82
2022/12/08 09:08:53;;;;;;;0.80;0.77;;;;;;;;;;5055129;28;20205;-82
2022/12/08 09:11:18;;;;;;;2.07;0.90;;;;;;;;;;5041281;28;20189;-83
2022/12/08 09:13:46;;;;;;;0.67;0.50;;;;;;;;;;5060477;28;20204;-83
2022/12/08 09:16:11;;;;;;;1.13;0.50;;;;;;;;;;5044830;28;20177;-82
2022/12/08 09:18:37;;;;;;;1.67;0.50;;;;;;;;;;5053310;28;20199;-83
2022/12/08 09:21:03;;;;;;;0.83;0.40;;;;;;;;;;5052797;28;20526;-82
2022/12/08 09:23:28;;;;;;;1.00;0.30;;;;;;;;;;5040768;28;20223;-83
2022/12/08 09:25:54;;;;;;;0.80;0.50;;;;;;;;;;5049942;28;20185;-86
2022/12/08 09:28:19;;;;;;;0.60;0.60;;;;;;;;;;5041590;28;20642;-85
2022/12/08 09:30:44;;;;;;;0.93;0.30;;;;;;;;;;5054987;28;20245;-84
2022/12/08 09:33:09;;;;;;;0.60;0.40;;;;;;;;;;5041857;28;20266;-85
2022/12/08 09:35:34;;;;;;;1.07;0.40;;;;;;;;;;5038568;28;20272;-85
2022/12/08 09:38:00;;;;;;;0.73;0.47;;;;;;;;;;5039850;28;20197;-86
2022/12/08 09:40:25;;;;;;;1.73;0.30;;;;;;;;;;5039053;28;20180;-85
2022/12/08 09:42:54;;;;;;;0.57;0.30;;;;;;;;;;5040242;28;20177;-84
2022/12/08 09:45:29;;;;;;;0.47;0.47;;;;;;;;;;5058024;28;20292;-83
2022/12/08 09:47:59;;;;;;;1.10;0.40;;;;;;;;;;5059085;28;20570;-84
2022/12/08 09:50:30;;;;;;;0.93;0.30;;;;;;;;;;5054472;28;20184;-82
2022/12/08 09:52:58;;;;;;;0.20;0.20;;;;;;;;;;5056411;28;20194;-85
2022/12/08 09:55:30;;;;;;;1.17;0.30;;;;;;;;;;5059249;28;20173;-82
2022/12/08 09:58:02;;;;;;;1.70;0.40;;;;;;;;;;5037265;28;20296;-85
2022/12/08 10:00:27;;;;;;;0.70;0.40;;;;;;;;;;5059186;28;20554;-82
2022/12/08 10:02:54;;;;;;;3.50;0.47;;;;;;;;;;5049990;28;20177;-83
2022/12/08 10:05:20;;;;;;;1.60;0.40;;;;;;;;;;5035633;28;20177;-83
2022/12/08 10:07:57;;;;;;;0.70;0.60;;;;;;;;;;5042635;23;20236;-75
2022/12/08 10:10:29;;;;;;;0.50;0.40;;;;;;;;;;5050576;28;20644;-75
2022/12/08 10:13:06;;;;;;;0.90;0.50;;;;;;;;;;5050591;28;20210;-75
2022/12/08 10:15:33;;;;;;;0.77;0.40;;;;;;;;;;5048141;28;20189;-75
2022/12/08 10:18:00;;;;;;;0.67;0.30;;;;;;;;;;5040950;28;20297;-75
2022/12/08 10:20:32;;;;;;;1.90;0.90;;;;;;;;;;5045802;28;20220;-75
2022/12/08 10:23:05;;;;;;;2.30;0.50;;;;;;;;;;5043291;28;20264;-75
2022/12/08 10:25:33;;;;;;;1.53;0.30;;;;;;;;;;5047920;28;20563;-74
2022/12/08 10:27:59;;;;;;;0.50;0.30;;;;;;;;;;5051885;28;20205;-75
2022/12/08 10:30:24;;;;;;;1.93;0.30;;;;;;;;;;5051727;28;20209;-75
2022/12/08 10:32:50;;;;;;;0.50;0.37;;;;;;;;;;5047564;28;20201;-75
2022/12/08 10:35:16;;;;;;;2.03;0.67;;;;;;;;;;5053024;28;20173;-75
2022/12/08 10:37:56;;;;;;;0.40;0.40;;;;;;;;;;5050831;28;20204;-74
2022/12/08 10:40:21;;;;;;;1.37;0.50;;;;;;;;;;5031304;28;20810;-75
2022/12/08 10:42:47;;;;;;;2.10;0.90;;;;;;;;;;5052362;28;20179;-75
2022/12/08 10:45:42;;;;;;;0.70;0.70;;;;;;;;;;5033949;28;20694;-75
2022/12/08 10:48:10;;;;;;;2.57;0.80;;;;;;;;;;5036299;28;20213;-76
2022/12/08 10:50:45;;;;;;;1.37;0.87;;;;;;;;;;5030761;28;20212;-75
2022/12/08 10:53:12;;;;;;;1.67;0.83;;;;;;;;;;5051502;28;20192;-75
2022/12/08 10:55:39;;;;;;;1.03;0.87;;;;;;;;;;5044606;28;20181;-74
2022/12/08 10:58:04;;;;;;;1.10;1.00;;;;;;;;;;5051819;28;20189;-75
2022/12/08 11:00:29;;;;;;;3.53;1.37;;;;;;;;;;5052316;28;20261;-75
2022/12/08 11:02:58;;;;;;;1.13;0.97;;;;;;;;;;5051202;28;20174;-74
2022/12/08 11:05:28;;;;;;;2.67;1.13;;;;;;;;;;5052237;28;20227;-74
2022/12/08 11:07:53;;;;;;;1.47;1.37;;;;;;;;;;5034353;28;20300;-74
2022/12/08 11:10:31;;;;;;;1.63;1.00;;;;;;;;;;5034541;28;20292;-74
2022/12/08 11:12:58;;;;;;;3.13;1.23;;;;;;;;;;5055382;28;20201;-74
2022/12/08 11:15:24;;;;;;;1.60;1.50;;;;;;;;;;5034311;28;20181;-75
2022/12/08 11:17:58;;;;;;;1.50;1.30;;;;;;;;;;5051511;28;20289;-75
2022/12/08 11:20:23;;;;;;;2.00;1.83;;;;;;;;;;5049262;28;20264;-75
2022/12/08 11:22:53;;;;;;;1.93;1.70;;;;;;;;;;5052032;28;20260;-75
2022/12/08 11:25:20;;;;;;;1.77;1.47;;;;;;;;;;5052461;28;20227;-75
2022/12/08 11:27:47;;;;;;;2.53;1.50;;;;;;;;;;5050615;28;20193;-75
2022/12/08 11:30:20;;;;;;;2.83;2.33;;;;;;;;;;5051182;28;20268;-75
2022/12/08 11:32:48;;;;;;;1.57;1.40;;;;;;;;;;5044933;28;20663;-75
2022/12/08 11:35:28;;;;;;;2.50;1.60;;;;;;;;;;5046612;28;20182;-75
2022/12/08 11:38:01;;;;;;;1.60;1.33;;;;;;;;;;5050281;28;20193;-75
2022/12/08 11:40:33;;;;;;;2.27;1.80;;;;;;;;;;5051486;28;20659;-74
2022/12/08 11:43:19;;;;;;;1.27;1.17;;;;;;;;;;5049232;28;20180;-75
2022/12/08 11:45:46;;;;;;;1.87;1.63;;;;;;;;;;5047936;28;20178;-74
2022/12/08 11:48:12;;;;;;;2.30;1.20;;;;;;;;;;5035633;28;20812;-75
2022/12/08 11:50:37;;;;;;;2.80;1.50;;;;;;;;;;5033952;28;20181;-75
2022/12/08 11:53:04;;;;;;;4.90;1.53;;;;;;;;;;5052319;28;20233;-75
2022/12/08 11:55:38;;;;;;;1.87;1.40;;;;;;;;;;5033570;28;20177;-74
2022/12/08 11:58:19;;;;;;;1.83;1.00;;;;;;;;;;5052795;28;20193;-75
2022/12/08 12:00:44;;;;;;;1.53;1.20;;;;;;;;;;5036036;28;20188;-75
2022/12/08 12:03:19;;;;;;;0.90;0.80;;;;;;;;;;5053281;28;20192;-74
2022/12/08 12:05:52;;;;;;;2.07;1.00;;;;;;;;;;5029046;28;20556;-75
2022/12/08 12:08:21;;;;;;;1.40;1.30;;;;;;;;;;5046612;28;20263;-76
2022/12/08 12:11:09;;;;;;;1.47;1.33;;;;;;;;;;5052432;28;20212;-75
2022/12/08 12:13:42;;;;;;;1.30;1.20;;;;;;;;;;5052966;28;20213;-75
2022/12/08 12:16:26;;;;;;;1.57;1.20;;;;;;;;;;5050086;28;20188;-75
2022/12/08 12:18:56;;;;;;;1.43;1.33;;;;;;;;;;5049232;28;20177;-74
2022/12/08 12:21:28;;;;;;;1.27;1.17;;;;;;;;;;5052353;28;20655;-74
2022/12/08 12:23:53;;;;;;;2.00;1.43;;;;;;;;;;5048579;28;20545;-74
2022/12/08 12:26:22;;;;;;;2.70;1.30;;;;;;;;;;5026890;28;20185;-74
2022/12/08 12:28:54;;;;;;;1.50;1.40;;;;;;;;;;5046818;28;20223;-75
2022/12/08 12:31:28;;;;;;;1.73;1.63;;;;;;;;;;5048307;28;20186;-74
2022/12/08 12:33:55;;;;;;;1.67;1.57;;;;;;;;;;5030176;28;20451;-74
2022/12/08 12:36:21;;;;;;;1.73;1.60;;;;;;;;;;5055638;28;20209;-74
2022/12/08 12:39:06;;;;;;;1.53;1.40;;;;;;;;;;5051907;28;20684;-74
2022/12/08 12:41:40;;;;;;;1.60;1.47;;;;;;;;;;5048410;28;20177;-74
2022/12/08 12:44:08;;;;;;;3.50;1.67;;;;;;;;;;5052698;28;20184;-74
2022/12/08 12:46:49;;;;;;;1.80;1.50;;;;;;;;;;5056110;28;20177;-74
2022/12/08 12:49:32;;;;;;;1.50;1.30;;;;;;;;;;5056304;28;20185;-75
2022/12/08 12:51:58;;;;;;;4.40;1.40;;;;;;;;;;5044158;28;20301;-74
2022/12/08 12:54:24;;;;;;;1.90;1.20;;;;;;;;;;5050894;28;20670;-74
2022/12/08 12:56:51;;;;;;;1.50;1.40;;;;;;;;;;5051953;28;20244;-74
2022/12/08 12:59:43;;;;;;;1.30;1.20;;;;;;;;;;5045974;28;20182;-74
2022/12/08 13:02:27;;;;;;;1.30;1.20;;;;;;;;;;5023864;28;20288;-74
2022/12/08 13:04:52;;;;;;;1.30;1.17;;;;;;;;;;5031336;28;20204;-74
2022/12/08 13:07:22;;;;;;;1.20;1.10;;;;;;;;;;5049877;28;20687;-74
2022/12/08 13:09:54;;;;;;;1.03;0.97;;;;;;;;;;5049895;28;20231;-74
2022/12/08 13:12:21;;;;;;;1.00;0.80;;;;;;;;;;5048537;28;20247;-75
2022/12/08 13:14:48;;;;;;;1.53;1.10;;;;;;;;;;5051393;28;20727;-74
2022/12/08 13:17:30;;;;;;;1.93;1.37;;;;;;;;;;5055309;28;20268;-74
2022/12/08 13:19:56;;;;;;;2.30;1.10;;;;;;;;;;5048970;28;20264;-74
2022/12/08 13:22:41;;;;;;;2.03;1.37;;;;;;;;;;5049191;28;20184;-74
2022/12/08 13:25:32;;;;;;;1.83;1.27;;;;;;;;;;5051547;28;20344;-74
2022/12/08 13:28:07;;;;;;;3.17;1.80;;;;;;;;;;5008683;28;20278;-74
2022/12/08 13:30:41;;;;;;;2.53;2.07;;;;;;;;;;5046729;28;20177;-74
2022/12/08 13:33:10;;;;;;;2.10;1.90;;;;;;;;;;5047010;28;20216;-74
2022/12/08 13:35:39;;;;;;;3.60;2.73;;;;;;;;;;5049023;28;20196;-74
2022/12/08 13:38:05;;;;;;;4.37;3.97;;;;;;;;;;5036013;28;20240;-74
2022/12/08 13:40:33;;;;;;;3.20;2.80;;;;;;;;;;5031893;28;20548;-74
2022/12/08 13:43:04;;;;;;;2.67;2.00;;;;;;;;;;5046874;28;20201;-73
2022/12/08 13:45:31;;;;;;;5.13;3.23;;;;;;;;;;5048912;28;20193;-73
2022/12/08 13:48:08;;;;;;;2.97;2.63;;;;;;;;;;5045527;28;20263;-74
2022/12/08 13:50:42;;;;;;;7.27;2.57;;;;;;;;;;5046120;28;20189;-74
2022/12/08 13:53:16;;;;;;;3.97;2.40;;;;;;;;;;5045371;28;20211;-74
2022/12/08 13:55:53;;;;;;;3.30;2.00;;;;;;;;;;5045493;28;20223;-74
2022/12/08 13:58:23;;;;;;;2.80;2.50;;;;;;;;;;5044886;28;20750;-74
2022/12/08 14:01:04;;;;;;;3.30;2.50;;;;;;;;;;5054318;28;20185;-74
2022/12/08 14:03:29;;;;;;;2.40;2.00;;;;;;;;;;5051817;28;20247;-74
2022/12/08 14:05:55;;;;;;;4.20;3.07;;;;;;;;;;5053434;28;20177;-73
2022/12/08 14:08:38;;;;;;;2.17;1.97;;;;;;;;;;5053166;28;20208;-74
2022/12/08 14:11:05;;;;;;;4.03;1.80;;;;;;;;;;5050008;28;20282;-74
2022/12/08 14:13:31;;;;;;;4.03;2.73;;;;;;;;;;5053815;28;20201;-73
2022/12/08 14:15:56;;;;;;;3.37;2.40;;;;;;;;;;5055509;28;20625;-73
2022/12/08 14:18:24;;;;;;;3.30;1.80;;;;;;;;;;5053802;28;20228;-74
2022/12/08 14:21:00;;;;;;;5.93;1.70;;;;;;;;;;5032337;28;20182;-74
2022/12/08 14:23:25;;;;;;;2.10;1.23;;;;;;;;;;5054408;28;20264;-74
2022/12/08 14:25:51;;;;;;;2.93;1.43;;;;;;;;;;5053856;28;20256;-74
2022/12/08 14:28:16;;;;;;;1.50;1.10;;;;;;;;;;5036362;28;20209;-74
2022/12/08 14:30:41;;;;;;;1.63;1.23;;;;;;;;;;5051223;28;20182;-75
2022/12/08 14:33:11;;;;;;;1.47;1.20;;;;;;;;;;5046171;28;20239;-73
2022/12/08 14:35:37;;;;;;;1.57;1.40;;;;;;;;;;5048989;28;20440;-73
2022/12/08 14:38:13;;;;;;;3.77;1.50;;;;;;;;;;5053672;28;20208;-73
2022/12/08 14:40:40;;;;;;;1.93;1.50;;;;;;;;;;5051603;28;20211;-73
2022/12/08 14:43:08;;;;;;;2.33;1.70;;;;;;;;;;5033547;28;20595;-73
2022/12/08 14:45:44;;;;;;;2.03;1.70;;;;;;;;;;5054026;28;20186;-73
2022/12/08 14:48:19;;;;;;;2.23;1.70;;;;;;;;;;5038686;28;20706;-73
2022/12/08 14:50:53;;;;;;;1.77;1.57;;;;;;;;;;5048957;28;20168;-73
2022/12/08 14:53:18;;;;;;;3.37;1.50;;;;;;;;;;5034543;28;20236;-73